PWSweather.com
Personal Weather Stations
Station Observations
AS787
Cloppers Mill East, Germantown, MD 20874-2154

Cloppers Mill EastGermantown, MD 20874-2154

Lat: 39.1522, Lon: -77.2679

Elevation: 318

Station Type: 1-Wire

http://www.cloppermillweather.org/

High Low Average
Temperature 45.7°F7.6°C 39.1°F3.9°C 42.3°F5.7°C
Dew Point 44.6°F7.0°C 37.8°F3.2°C 40.7°F4.8°C
Winds 0.9 mph 1.4 kmh Calm Calm Calm SSWCalm SSW
Wind Gusts 5.0 mph8.0 kmh -- 1.0 mph1.6 kmh
Humidity 96% 90% 94%
Pressure 30.58 in1035.6 mb 30.22 in1023.4 mb -
Precipitation 0.00 in0.0 mm - -
Hour Temp Dew Point Humidity Winds Wind Gusts Pressure Precip Precip Rate Daily Precip Total
12:14 AM 41.7°F5.4°C 39.1°F3.9°C 90% Calm Calm -- 30.58 in1035.6 mb 0.00 in0.0 mm 0.00 in0.0 mm 0.00 in0.0 mm
12:44 AM 41.5°F5.3°C 38.8°F3.8°C 90% Calm Calm -- 30.57 in1035.2 mb 0.00 in0.0 mm 0.00 in0.0 mm 0.00 in0.0 mm
01:14 AM 41.5°F5.3°C 38.8°F3.8°C 90% Calm Calm -- 30.57 in1035.2 mb 0.00 in0.0 mm 0.00 in0.0 mm 0.00 in0.0 mm
01:44 AM 41.4°F5.2°C 39.0°F3.9°C 91% Calm Calm -- 30.57 in1035.2 mb 0.00 in0.0 mm 0.00 in0.0 mm 0.00 in0.0 mm
02:14 AM 41.4°F5.2°C 39.0°F3.9°C 91% Calm Calm -- 30.58 in1035.6 mb 0.00 in0.0 mm 0.00 in0.0 mm 0.00 in0.0 mm
02:44 AM 41.3°F5.2°C 38.9°F3.8°C 91% Calm Calm -- 30.56 in1034.9 mb 0.00 in0.0 mm 0.00 in0.0 mm 0.00 in0.0 mm
03:14 AM 40.7°F4.8°C 38.2°F3.4°C 91% Calm Calm -- 30.57 in1035.2 mb 0.01 in0.3 mm 0.02 in0.5 mm 0.01 in0.3 mm
03:44 AM 40.5°F4.7°C 38.3°F3.5°C 92% Calm Calm -- 30.57 in1035.2 mb 0.01 in0.3 mm 0.00 in0.0 mm 0.01 in0.3 mm
04:14 AM 40.4°F4.7°C 38.3°F3.5°C 92% Calm Calm -- 30.56 in1034.9 mb 0.00 in0.0 mm 0.00 in0.0 mm 0.01 in0.3 mm
04:44 AM 40.4°F4.7°C 38.4°F3.6°C 93% Calm Calm -- 30.56 in1034.9 mb 0.01 in0.3 mm 0.02 in0.5 mm 0.02 in0.5 mm
05:14 AM 40.2°F4.6°C 38.3°F3.5°C 93% Calm Calm -- 30.57 in1035.2 mb 0.00 in0.0 mm 0.00 in0.0 mm 0.02 in0.5 mm
05:44 AM 40.0°F4.4°C 38.4°F3.6°C 94% Calm Calm -- 30.56 in1034.9 mb 0.00 in0.0 mm 0.00 in0.0 mm 0.02 in0.5 mm
06:14 AM 40.0°F4.4°C 38.4°F3.6°C 94% Calm Calm -- 30.56 in1034.9 mb 0.01 in0.3 mm 0.02 in0.5 mm 0.03 in0.8 mm
06:44 AM 39.9°F4.4°C 38.3°F3.5°C 94% Calm Calm -- 30.56 in1034.9 mb 0.01 in0.3 mm 0.00 in0.0 mm 0.03 in0.8 mm
07:14 AM 39.8°F4.3°C 38.2°F3.4°C 94% Calm Calm -- 30.55 in1034.5 mb 0.00 in0.0 mm 0.00 in0.0 mm 0.03 in0.8 mm
07:44 AM 39.7°F4.3°C 38.4°F3.6°C 95% Calm Calm -- 30.55 in1034.5 mb 0.00 in0.0 mm 0.00 in0.0 mm 0.03 in0.8 mm
08:14 AM 39.3°F4.1°C 38.0°F3.3°C 95% Calm Calm -- 30.56 in1034.9 mb 0.04 in1.0 mm 0.08 in2.0 mm 0.07 in1.8 mm
08:44 AM 39.1°F3.9°C 37.8°F3.2°C 95% Calm Calm -- 30.56 in1034.9 mb 0.06 in1.5 mm 0.04 in1.0 mm 0.09 in2.3 mm
09:14 AM 39.3°F4.1°C 38.0°F3.3°C 95% Calm Calm -- 30.56 in1034.9 mb 0.00 in0.0 mm 0.00 in0.0 mm 0.09 in2.3 mm
09:44 AM 39.7°F4.3°C 38.4°F3.6°C 95% 0.0 mph ESE0.0 kmh ESE 1.0 mph1.6 kmh 30.55 in1034.5 mb 0.00 in0.0 mm 0.00 in0.0 mm 0.09 in2.3 mm
10:14 AM 40.1°F4.5°C 38.8°F3.8°C 95% Calm Calm -- 30.56 in1034.9 mb 0.00 in0.0 mm 0.00 in0.0 mm 0.09 in2.3 mm
10:44 AM 40.1°F4.5°C 38.8°F3.8°C 95% Calm Calm -- 30.55 in1034.5 mb 0.00 in0.0 mm 0.00 in0.0 mm 0.09 in2.3 mm
11:14 AM 40.3°F4.6°C 39.0°F3.9°C 95% Calm Calm -- 30.54 in1034.2 mb 0.00 in0.0 mm 0.00 in0.0 mm 0.09 in2.3 mm
11:44 AM 40.6°F4.8°C 39.3°F4.1°C 95% Calm Calm -- 30.52 in1033.5 mb 0.00 in0.0 mm 0.00 in0.0 mm 0.09 in2.3 mm
12:14 PM 41.0°F5.0°C 39.7°F4.3°C 95% 0.2 mph WSW0.3 kmh WSW 2.0 mph3.2 kmh 30.52 in1033.5 mb 0.00 in0.0 mm 0.00 in0.0 mm 0.09 in2.3 mm
12:44 PM 41.5°F5.3°C 40.2°F4.6°C 95% 0.8 mph SW1.3 kmh SW 3.0 mph4.8 kmh 30.51 in1033.2 mb 0.00 in0.0 mm 0.00 in0.0 mm 0.09 in2.3 mm
01:14 PM 41.9°F5.5°C 40.6°F4.8°C 95% 0.0 mph SW0.0 kmh SW 1.0 mph1.6 kmh 30.48 in1032.2 mb 0.00 in0.0 mm 0.00 in0.0 mm 0.09 in2.3 mm
01:44 PM 42.5°F5.8°C 40.9°F4.9°C 94% 0.6 mph SW1.0 kmh SW 3.0 mph4.8 kmh 30.45 in1031.2 mb 0.01 in0.3 mm 0.02 in0.5 mm 0.10 in2.5 mm
02:14 PM 42.7°F5.9°C 41.1°F5.1°C 94% 0.9 mph WSW1.4 kmh WSW 4.0 mph6.4 kmh 30.41 in1029.8 mb 0.00 in0.0 mm 0.00 in0.0 mm 0.10 in2.5 mm
02:44 PM 43.7°F6.5°C 41.8°F5.4°C 93% 0.0 mph SW0.0 kmh SW 1.0 mph1.6 kmh 30.41 in1029.8 mb 0.00 in0.0 mm 0.00 in0.0 mm 0.10 in2.5 mm
03:14 PM 43.7°F6.5°C 41.5°F5.3°C 92% 0.8 mph WSW1.3 kmh WSW 5.0 mph8.0 kmh 30.39 in1029.1 mb 0.00 in0.0 mm 0.00 in0.0 mm 0.10 in2.5 mm
03:44 PM 44.1°F6.7°C 41.9°F5.5°C 92% Calm Calm 3.0 mph4.8 kmh 30.37 in1028.4 mb 0.00 in0.0 mm 0.00 in0.0 mm 0.10 in2.5 mm
04:14 PM 44.4°F6.9°C 42.2°F5.7°C 92% Calm Calm 4.0 mph6.4 kmh 30.36 in1028.1 mb 0.00 in0.0 mm 0.00 in0.0 mm 0.10 in2.5 mm
04:44 PM 44.5°F6.9°C 42.4°F5.8°C 92% Calm Calm -- 30.35 in1027.8 mb 0.00 in0.0 mm 0.00 in0.0 mm 0.10 in2.5 mm
05:14 PM 44.7°F7.1°C 42.5°F5.8°C 92% Calm Calm -- 30.35 in1027.8 mb 0.00 in0.0 mm 0.00 in0.0 mm 0.10 in2.5 mm
05:44 PM 44.7°F7.1°C 42.5°F5.8°C 92% Calm Calm -- 30.33 in1027.1 mb 0.00 in0.0 mm 0.00 in0.0 mm 0.10 in2.5 mm
06:14 PM 44.5°F6.9°C 42.3°F5.7°C 92% Calm Calm -- 30.33 in1027.1 mb 0.00 in0.0 mm 0.00 in0.0 mm 0.10 in2.5 mm
06:44 PM 44.5°F6.9°C 42.6°F5.9°C 93% Calm Calm -- 30.32 in1026.8 mb 0.00 in0.0 mm 0.00 in0.0 mm 0.10 in2.5 mm
07:14 PM 44.4°F6.9°C 42.5°F5.8°C 93% Calm Calm -- 30.31 in1026.4 mb 0.00 in0.0 mm 0.00 in0.0 mm 0.10 in2.5 mm
07:44 PM 44.4°F6.9°C 42.8°F6.0°C 94% Calm Calm -- 30.30 in1026.1 mb 0.00 in0.0 mm 0.00 in0.0 mm 0.10 in2.5 mm
08:14 PM 44.3°F6.8°C 42.7°F5.9°C 94% Calm Calm -- 30.30 in1026.1 mb 0.00 in0.0 mm 0.00 in0.0 mm 0.10 in2.5 mm
08:44 PM 44.4°F6.9°C 43.1°F6.2°C 95% Calm Calm -- 30.29 in1025.7 mb 0.00 in0.0 mm 0.00 in0.0 mm 0.10 in2.5 mm
09:14 PM 44.5°F6.9°C 43.1°F6.2°C 95% Calm Calm -- 30.28 in1025.4 mb 0.00 in0.0 mm 0.00 in0.0 mm 0.10 in2.5 mm
09:44 PM 44.6°F7.0°C 43.2°F6.2°C 95% Calm Calm -- 30.27 in1025.1 mb 0.00 in0.0 mm 0.00 in0.0 mm 0.10 in2.5 mm
10:14 PM 44.8°F7.1°C 43.7°F6.5°C 96% Calm Calm -- 30.27 in1025.1 mb 0.00 in0.0 mm 0.00 in0.0 mm 0.10 in2.5 mm
10:44 PM 44.9°F7.2°C 43.8°F6.6°C 96% Calm Calm -- 30.26 in1024.7 mb 0.00 in0.0 mm 0.00 in0.0 mm 0.10 in2.5 mm
11:14 PM 45.1°F7.3°C 44.1°F6.7°C 96% Calm Calm -- 30.26 in1024.7 mb 0.00 in0.0 mm 0.00 in0.0 mm 0.10 in2.5 mm
11:44 PM 45.3°F7.4°C 44.2°F6.8°C 96% Calm Calm -- 30.24 in1024.0 mb 0.00 in0.0 mm 0.00 in0.0 mm 0.10 in2.5 mm